sensor_id;sensor_type;location;lat;lon;timestamp;P1;durP1;ratioP1;P2;durP2;ratioP2
4355;SDS011;2191;51.482;7.408;2022-07-06T00:00:18;5.47;;;1.50;;
4355;SDS011;2191;51.482;7.408;2022-07-06T00:02:48;5.07;;;1.40;;
4355;SDS011;2191;51.482;7.408;2022-07-06T00:05:18;3.97;;;1.80;;
4355;SDS011;2191;51.482;7.408;2022-07-06T00:07:46;5.17;;;1.70;;
4355;SDS011;2191;51.482;7.408;2022-07-06T00:10:17;2.63;;;1.27;;
4355;SDS011;2191;51.482;7.408;2022-07-06T00:12:46;2.30;;;1.50;;
4355;SDS011;2191;51.482;7.408;2022-07-06T00:15:14;4.10;;;1.50;;
4355;SDS011;2191;51.482;7.408;2022-07-06T00:17:42;4.70;;;1.97;;
4355;SDS011;2191;51.482;7.408;2022-07-06T00:20:13;3.77;;;1.87;;
4355;SDS011;2191;51.482;7.408;2022-07-06T00:22:41;4.67;;;2.10;;
4355;SDS011;2191;51.482;7.408;2022-07-06T00:25:09;2.63;;;2.17;;
4355;SDS011;2191;51.482;7.408;2022-07-06T00:27:37;5.03;;;1.80;;
4355;SDS011;2191;51.482;7.408;2022-07-06T00:30:17;3.30;;;2.17;;
4355;SDS011;2191;51.482;7.408;2022-07-06T00:32:49;2.67;;;1.57;;
4355;SDS011;2191;51.482;7.408;2022-07-06T00:35:17;3.90;;;1.87;;
4355;SDS011;2191;51.482;7.408;2022-07-06T00:37:45;7.97;;;2.13;;
4355;SDS011;2191;51.482;7.408;2022-07-06T00:40:12;3.83;;;1.70;;
4355;SDS011;2191;51.482;7.408;2022-07-06T00:42:43;2.60;;;1.60;;
4355;SDS011;2191;51.482;7.408;2022-07-06T00:45:15;3.80;;;1.77;;
4355;SDS011;2191;51.482;7.408;2022-07-06T00:47:49;4.60;;;1.90;;
4355;SDS011;2191;51.482;7.408;2022-07-06T00:50:18;5.50;;;1.50;;
4355;SDS011;2191;51.482;7.408;2022-07-06T00:52:48;6.77;;;1.50;;
4355;SDS011;2191;51.482;7.408;2022-07-06T00:55:21;3.03;;;1.70;;
4355;SDS011;2191;51.482;7.408;2022-07-06T00:57:50;4.03;;;2.40;;
4355;SDS011;2191;51.482;7.408;2022-07-06T01:00:20;4.20;;;1.83;;
4355;SDS011;2191;51.482;7.408;2022-07-06T01:02:50;4.83;;;1.73;;
4355;SDS011;2191;51.482;7.408;2022-07-06T01:05:22;3.87;;;1.83;;
4355;SDS011;2191;51.482;7.408;2022-07-06T01:07:50;2.90;;;1.70;;
4355;SDS011;2191;51.482;7.408;2022-07-06T01:10:20;2.83;;;1.57;;
4355;SDS011;2191;51.482;7.408;2022-07-06T01:12:51;5.20;;;2.07;;
4355;SDS011;2191;51.482;7.408;2022-07-06T01:15:21;3.90;;;1.77;;
4355;SDS011;2191;51.482;7.408;2022-07-06T01:17:51;6.13;;;1.80;;
4355;SDS011;2191;51.482;7.408;2022-07-06T01:20:20;2.83;;;1.77;;
4355;SDS011;2191;51.482;7.408;2022-07-06T01:22:54;2.20;;;1.77;;
4355;SDS011;2191;51.482;7.408;2022-07-06T01:25:31;5.63;;;1.70;;
4355;SDS011;2191;51.482;7.408;2022-07-06T01:28:04;5.53;;;2.30;;
4355;SDS011;2191;51.482;7.408;2022-07-06T01:30:34;4.27;;;1.83;;
4355;SDS011;2191;51.482;7.408;2022-07-06T01:33:02;2.60;;;1.73;;
4355;SDS011;2191;51.482;7.408;2022-07-06T01:35:32;2.47;;;1.80;;
4355;SDS011;2191;51.482;7.408;2022-07-06T01:38:02;8.40;;;1.67;;
4355;SDS011;2191;51.482;7.408;2022-07-06T01:40:37;3.00;;;2.23;;
4355;SDS011;2191;51.482;7.408;2022-07-06T01:43:05;5.47;;;1.83;;
4355;SDS011;2191;51.482;7.408;2022-07-06T01:45:33;4.90;;;1.90;;
4355;SDS011;2191;51.482;7.408;2022-07-06T01:48:04;4.53;;;1.70;;
4355;SDS011;2191;51.482;7.408;2022-07-06T01:53:35;4.77;;;1.47;;
4355;SDS011;2191;51.482;7.408;2022-07-06T01:56:06;1.80;;;1.70;;
4355;SDS011;2191;51.482;7.408;2022-07-06T01:58:34;2.50;;;1.33;;
4355;SDS011;2191;51.482;7.408;2022-07-06T02:01:06;2.10;;;1.80;;
4355;SDS011;2191;51.482;7.408;2022-07-06T02:03:35;2.67;;;1.27;;
4355;SDS011;2191;51.482;7.408;2022-07-06T02:06:05;1.63;;;1.27;;
4355;SDS011;2191;51.482;7.408;2022-07-06T02:08:34;5.57;;;1.93;;
4355;SDS011;2191;51.482;7.408;2022-07-06T02:11:08;3.60;;;2.10;;
4355;SDS011;2191;51.482;7.408;2022-07-06T02:13:37;2.70;;;1.93;;
4355;SDS011;2191;51.482;7.408;2022-07-06T02:16:06;1.43;;;1.30;;
4355;SDS011;2191;51.482;7.408;2022-07-06T02:18:34;3.70;;;1.67;;
4355;SDS011;2191;51.482;7.408;2022-07-06T02:21:07;5.97;;;2.20;;
4355;SDS011;2191;51.482;7.408;2022-07-06T02:23:35;6.80;;;1.70;;
4355;SDS011;2191;51.482;7.408;2022-07-06T02:26:03;2.97;;;1.73;;
4355;SDS011;2191;51.482;7.408;2022-07-06T02:28:33;2.10;;;2.00;;
4355;SDS011;2191;51.482;7.408;2022-07-06T02:31:01;4.00;;;1.20;;
4355;SDS011;2191;51.482;7.408;2022-07-06T02:33:42;1.70;;;1.20;;
4355;SDS011;2191;51.482;7.408;2022-07-06T02:36:11;3.60;;;1.60;;
4355;SDS011;2191;51.482;7.408;2022-07-06T02:38:39;2.13;;;1.43;;
4355;SDS011;2191;51.482;7.408;2022-07-06T02:41:12;6.80;;;1.90;;
4355;SDS011;2191;51.482;7.408;2022-07-06T02:43:42;1.80;;;1.50;;
4355;SDS011;2191;51.482;7.408;2022-07-06T02:46:13;1.53;;;1.40;;
4355;SDS011;2191;51.482;7.408;2022-07-06T02:48:41;4.13;;;1.73;;
4355;SDS011;2191;51.482;7.408;2022-07-06T02:51:09;7.30;;;1.60;;
4355;SDS011;2191;51.482;7.408;2022-07-06T02:53:38;2.90;;;1.80;;
4355;SDS011;2191;51.482;7.408;2022-07-06T02:56:06;1.93;;;1.80;;
4355;SDS011;2191;51.482;7.408;2022-07-06T02:58:34;4.23;;;2.00;;
4355;SDS011;2191;51.482;7.408;2022-07-06T03:01:08;5.33;;;2.03;;
4355;SDS011;2191;51.482;7.408;2022-07-06T03:03:36;3.93;;;1.83;;
4355;SDS011;2191;51.482;7.408;2022-07-06T03:06:06;2.53;;;1.80;;
4355;SDS011;2191;51.482;7.408;2022-07-06T03:08:38;4.03;;;1.77;;
4355;SDS011;2191;51.482;7.408;2022-07-06T03:11:06;3.00;;;1.80;;
4355;SDS011;2191;51.482;7.408;2022-07-06T03:13:43;4.53;;;1.70;;
4355;SDS011;2191;51.482;7.408;2022-07-06T03:16:10;6.80;;;2.20;;
4355;SDS011;2191;51.482;7.408;2022-07-06T03:18:38;10.63;;;2.00;;
4355;SDS011;2191;51.482;7.408;2022-07-06T03:21:07;2.50;;;1.43;;
4355;SDS011;2191;51.482;7.408;2022-07-06T03:23:39;6.83;;;2.03;;
4355;SDS011;2191;51.482;7.408;2022-07-06T03:26:07;2.47;;;2.03;;
4355;SDS011;2191;51.482;7.408;2022-07-06T03:28:35;4.80;;;1.67;;
4355;SDS011;2191;51.482;7.408;2022-07-06T03:31:03;2.17;;;1.90;;
4355;SDS011;2191;51.482;7.408;2022-07-06T03:33:31;6.43;;;2.27;;
4355;SDS011;2191;51.482;7.408;2022-07-06T03:35:58;4.20;;;2.10;;
4355;SDS011;2191;51.482;7.408;2022-07-06T03:38:26;2.87;;;2.07;;
4355;SDS011;2191;51.482;7.408;2022-07-06T03:41:00;4.47;;;2.63;;
4355;SDS011;2191;51.482;7.408;2022-07-06T03:43:30;3.07;;;2.20;;
4355;SDS011;2191;51.482;7.408;2022-07-06T03:45:58;3.93;;;2.50;;
4355;SDS011;2191;51.482;7.408;2022-07-06T03:48:29;4.17;;;2.47;;
4355;SDS011;2191;51.482;7.408;2022-07-06T03:50:56;5.67;;;2.50;;
4355;SDS011;2191;51.482;7.408;2022-07-06T03:53:24;5.00;;;1.97;;
4355;SDS011;2191;51.482;7.408;2022-07-06T03:55:55;3.80;;;2.73;;
4355;SDS011;2191;51.482;7.408;2022-07-06T03:58:56;4.90;;;2.67;;
4355;SDS011;2191;51.482;7.408;2022-07-06T04:01:36;6.27;;;2.70;;
4355;SDS011;2191;51.482;7.408;2022-07-06T04:04:05;6.80;;;2.60;;
4355;SDS011;2191;51.482;7.408;2022-07-06T04:06:41;7.97;;;2.80;;
4355;SDS011;2191;51.482;7.408;2022-07-06T04:09:09;3.93;;;2.03;;
4355;SDS011;2191;51.482;7.408;2022-07-06T04:11:39;2.60;;;2.27;;
4355;SDS011;2191;51.482;7.408;2022-07-06T04:14:08;6.43;;;2.30;;
4355;SDS011;2191;51.482;7.408;2022-07-06T04:16:36;2.57;;;2.37;;
4355;SDS011;2191;51.482;7.408;2022-07-06T04:19:07;3.57;;;2.40;;
4355;SDS011;2191;51.482;7.408;2022-07-06T04:21:35;5.33;;;2.40;;
4355;SDS011;2191;51.482;7.408;2022-07-06T04:24:03;2.77;;;2.03;;
4355;SDS011;2191;51.482;7.408;2022-07-06T04:26:34;5.27;;;2.20;;
4355;SDS011;2191;51.482;7.408;2022-07-06T04:29:06;6.33;;;2.87;;
4355;SDS011;2191;51.482;7.408;2022-07-06T04:31:36;6.63;;;2.50;;
4355;SDS011;2191;51.482;7.408;2022-07-06T04:34:04;4.80;;;2.27;;
4355;SDS011;2191;51.482;7.408;2022-07-06T04:36:31;4.37;;;2.60;;
4355;SDS011;2191;51.482;7.408;2022-07-06T04:39:07;5.90;;;2.60;;
4355;SDS011;2191;51.482;7.408;2022-07-06T04:41:37;5.33;;;3.57;;
4355;SDS011;2191;51.482;7.408;2022-07-06T04:44:05;10.10;;;2.80;;
4355;SDS011;2191;51.482;7.408;2022-07-06T04:46:36;2.00;;;1.80;;
4355;SDS011;2191;51.482;7.408;2022-07-06T04:49:04;5.00;;;2.57;;
4355;SDS011;2191;51.482;7.408;2022-07-06T04:51:32;4.63;;;2.00;;
4355;SDS011;2191;51.482;7.408;2022-07-06T04:54:03;3.60;;;2.33;;
4355;SDS011;2191;51.482;7.408;2022-07-06T04:56:31;5.43;;;2.47;;
4355;SDS011;2191;51.482;7.408;2022-07-06T04:59:11;7.13;;;3.17;;
4355;SDS011;2191;51.482;7.408;2022-07-06T05:01:40;3.67;;;1.93;;
4355;SDS011;2191;51.482;7.408;2022-07-06T05:04:10;5.13;;;2.67;;
4355;SDS011;2191;51.482;7.408;2022-07-06T05:06:39;5.10;;;2.80;;
4355;SDS011;2191;51.482;7.408;2022-07-06T05:09:07;3.07;;;1.83;;
4355;SDS011;2191;51.482;7.408;2022-07-06T05:11:46;4.53;;;2.37;;
4355;SDS011;2191;51.482;7.408;2022-07-06T05:14:14;4.20;;;2.10;;
4355;SDS011;2191;51.482;7.408;2022-07-06T05:16:53;3.80;;;2.30;;
4355;SDS011;2191;51.482;7.408;2022-07-06T05:19:21;5.77;;;2.20;;
4355;SDS011;2191;51.482;7.408;2022-07-06T05:22:08;4.93;;;2.50;;
4355;SDS011;2191;51.482;7.408;2022-07-06T05:24:38;3.97;;;2.50;;
4355;SDS011;2191;51.482;7.408;2022-07-06T05:27:06;5.03;;;2.20;;
4355;SDS011;2191;51.482;7.408;2022-07-06T05:29:34;8.43;;;2.93;;
4355;SDS011;2191;51.482;7.408;2022-07-06T05:32:03;5.23;;;2.97;;
4355;SDS011;2191;51.482;7.408;2022-07-06T05:34:34;5.53;;;2.20;;
4355;SDS011;2191;51.482;7.408;2022-07-06T05:37:43;5.97;;;3.03;;
4355;SDS011;2191;51.482;7.408;2022-07-06T05:40:13;5.00;;;2.23;;
4355;SDS011;2191;51.482;7.408;2022-07-06T05:42:41;3.93;;;2.23;;
4355;SDS011;2191;51.482;7.408;2022-07-06T05:45:09;2.80;;;2.47;;
4355;SDS011;2191;51.482;7.408;2022-07-06T05:47:38;5.47;;;2.07;;
4355;SDS011;2191;51.482;7.408;2022-07-06T05:50:27;7.40;;;3.10;;
4355;SDS011;2191;51.482;7.408;2022-07-06T05:53:05;6.50;;;2.90;;
4355;SDS011;2191;51.482;7.408;2022-07-06T05:55:45;8.80;;;2.73;;
4355;SDS011;2191;51.482;7.408;2022-07-06T05:58:13;2.60;;;2.27;;
4355;SDS011;2191;51.482;7.408;2022-07-06T06:00:44;6.67;;;2.20;;
4355;SDS011;2191;51.482;7.408;2022-07-06T06:03:14;5.57;;;2.30;;
4355;SDS011;2191;51.482;7.408;2022-07-06T06:05:44;5.03;;;2.50;;
4355;SDS011;2191;51.482;7.408;2022-07-06T06:08:12;6.73;;;2.00;;
4355;SDS011;2191;51.482;7.408;2022-07-06T06:10:40;4.70;;;2.33;;
4355;SDS011;2191;51.482;7.408;2022-07-06T06:13:21;5.57;;;1.70;;
4355;SDS011;2191;51.482;7.408;2022-07-06T06:15:50;3.40;;;2.20;;
4355;SDS011;2191;51.482;7.408;2022-07-06T06:18:19;2.50;;;1.73;;
4355;SDS011;2191;51.482;7.408;2022-07-06T06:20:50;7.03;;;1.87;;
4355;SDS011;2191;51.482;7.408;2022-07-06T06:23:27;4.60;;;1.90;;
4355;SDS011;2191;51.482;7.408;2022-07-06T06:25:55;6.87;;;2.70;;
4355;SDS011;2191;51.482;7.408;2022-07-06T06:28:23;7.27;;;2.13;;
4355;SDS011;2191;51.482;7.408;2022-07-06T06:30:53;4.33;;;2.17;;
4355;SDS011;2191;51.482;7.408;2022-07-06T06:33:22;3.40;;;1.93;;
4355;SDS011;2191;51.482;7.408;2022-07-06T06:35:53;5.70;;;1.80;;
4355;SDS011;2191;51.482;7.408;2022-07-06T06:38:21;9.97;;;2.17;;
4355;SDS011;2191;51.482;7.408;2022-07-06T06:40:54;4.70;;;1.80;;
4355;SDS011;2191;51.482;7.408;2022-07-06T06:43:22;2.30;;;1.70;;
4355;SDS011;2191;51.482;7.408;2022-07-06T06:45:57;5.10;;;1.83;;
4355;SDS011;2191;51.482;7.408;2022-07-06T06:51:11;2.53;;;1.13;;
4355;SDS011;2191;51.482;7.408;2022-07-06T06:53:39;2.73;;;1.30;;
4355;SDS011;2191;51.482;7.408;2022-07-06T06:56:09;2.00;;;1.13;;
4355;SDS011;2191;51.482;7.408;2022-07-06T06:58:42;5.47;;;1.70;;
4355;SDS011;2191;51.482;7.408;2022-07-06T07:01:30;3.33;;;1.77;;
4355;SDS011;2191;51.482;7.408;2022-07-06T07:04:01;3.27;;;1.27;;
4355;SDS011;2191;51.482;7.408;2022-07-06T07:06:32;3.20;;;1.40;;
4355;SDS011;2191;51.482;7.408;2022-07-06T07:09:00;7.23;;;2.50;;
4355;SDS011;2191;51.482;7.408;2022-07-06T07:11:37;5.90;;;1.40;;
4355;SDS011;2191;51.482;7.408;2022-07-06T07:14:10;5.53;;;1.40;;
4355;SDS011;2191;51.482;7.408;2022-07-06T07:16:41;3.13;;;1.40;;
4355;SDS011;2191;51.482;7.408;2022-07-06T07:19:10;8.10;;;1.23;;
4355;SDS011;2191;51.482;7.408;2022-07-06T07:21:44;6.83;;;3.13;;
4355;SDS011;2191;51.482;7.408;2022-07-06T07:24:12;5.13;;;1.27;;
4355;SDS011;2191;51.482;7.408;2022-07-06T07:26:40;1.57;;;1.20;;
4355;SDS011;2191;51.482;7.408;2022-07-06T07:29:08;2.70;;;1.43;;
4355;SDS011;2191;51.482;7.408;2022-07-06T07:31:36;3.47;;;1.33;;
4355;SDS011;2191;51.482;7.408;2022-07-06T07:34:04;4.63;;;1.47;;
4355;SDS011;2191;51.482;7.408;2022-07-06T07:36:33;9.40;;;1.47;;
4355;SDS011;2191;51.482;7.408;2022-07-06T07:39:01;3.43;;;1.27;;
4355;SDS011;2191;51.482;7.408;2022-07-06T07:41:30;2.33;;;1.20;;
4355;SDS011;2191;51.482;7.408;2022-07-06T07:43:58;2.60;;;1.67;;
4355;SDS011;2191;51.482;7.408;2022-07-06T07:46:28;3.43;;;1.23;;
4355;SDS011;2191;51.482;7.408;2022-07-06T07:49:01;3.37;;;1.23;;
4355;SDS011;2191;51.482;7.408;2022-07-06T07:51:46;3.53;;;1.27;;
4355;SDS011;2191;51.482;7.408;2022-07-06T07:54:16;2.53;;;1.23;;
4355;SDS011;2191;51.482;7.408;2022-07-06T07:56:47;7.97;;;1.53;;
4355;SDS011;2191;51.482;7.408;2022-07-06T07:59:20;8.40;;;1.47;;
4355;SDS011;2191;51.482;7.408;2022-07-06T08:02:09;4.60;;;1.00;;
4355;SDS011;2191;51.482;7.408;2022-07-06T08:04:37;7.67;;;1.20;;
4355;SDS011;2191;51.482;7.408;2022-07-06T08:07:11;4.47;;;1.10;;
4355;SDS011;2191;51.482;7.408;2022-07-06T08:09:39;5.30;;;1.37;;
4355;SDS011;2191;51.482;7.408;2022-07-06T08:12:07;3.13;;;1.00;;
4355;SDS011;2191;51.482;7.408;2022-07-06T08:14:36;4.10;;;1.20;;
4355;SDS011;2191;51.482;7.408;2022-07-06T08:17:07;7.73;;;1.37;;
4355;SDS011;2191;51.482;7.408;2022-07-06T08:19:35;6.37;;;2.30;;
4355;SDS011;2191;51.482;7.408;2022-07-06T08:22:12;3.40;;;1.43;;
4355;SDS011;2191;51.482;7.408;2022-07-06T08:24:40;2.37;;;1.20;;
4355;SDS011;2191;51.482;7.408;2022-07-06T08:27:11;3.73;;;1.00;;
4355;SDS011;2191;51.482;7.408;2022-07-06T08:29:39;2.53;;;1.40;;
4355;SDS011;2191;51.482;7.408;2022-07-06T08:32:07;2.17;;;1.20;;
4355;SDS011;2191;51.482;7.408;2022-07-06T08:34:55;4.13;;;1.10;;
4355;SDS011;2191;51.482;7.408;2022-07-06T08:37:24;5.20;;;1.20;;
4355;SDS011;2191;51.482;7.408;2022-07-06T08:39:54;3.13;;;1.27;;
4355;SDS011;2191;51.482;7.408;2022-07-06T08:42:22;2.10;;;1.10;;
4355;SDS011;2191;51.482;7.408;2022-07-06T08:44:59;3.77;;;1.10;;
4355;SDS011;2191;51.482;7.408;2022-07-06T08:47:30;4.50;;;1.00;;
4355;SDS011;2191;51.482;7.408;2022-07-06T08:50:02;2.17;;;1.40;;
4355;SDS011;2191;51.482;7.408;2022-07-06T08:52:35;5.37;;;1.50;;
4355;SDS011;2191;51.482;7.408;2022-07-06T08:55:08;1.57;;;1.20;;
4355;SDS011;2191;51.482;7.408;2022-07-06T08:57:37;1.63;;;0.90;;
4355;SDS011;2191;51.482;7.408;2022-07-06T09:00:06;6.93;;;1.20;;
4355;SDS011;2191;51.482;7.408;2022-07-06T09:02:35;6.00;;;1.03;;
4355;SDS011;2191;51.482;7.408;2022-07-06T09:05:04;2.03;;;0.93;;
4355;SDS011;2191;51.482;7.408;2022-07-06T09:07:35;3.13;;;1.00;;
4355;SDS011;2191;51.482;7.408;2022-07-06T09:10:25;6.20;;;1.37;;
4355;SDS011;2191;51.482;7.408;2022-07-06T09:12:53;6.10;;;1.03;;
4355;SDS011;2191;51.482;7.408;2022-07-06T09:15:29;4.50;;;1.13;;
4355;SDS011;2191;51.482;7.408;2022-07-06T09:18:05;2.50;;;1.23;;
4355;SDS011;2191;51.482;7.408;2022-07-06T09:20:34;6.77;;;1.40;;
4355;SDS011;2191;51.482;7.408;2022-07-06T09:23:06;9.57;;;1.00;;
4355;SDS011;2191;51.482;7.408;2022-07-06T09:25:42;3.87;;;1.30;;
4355;SDS011;2191;51.482;7.408;2022-07-06T09:28:19;4.73;;;1.07;;
4355;SDS011;2191;51.482;7.408;2022-07-06T09:30:52;3.20;;;1.50;;
4355;SDS011;2191;51.482;7.408;2022-07-06T09:33:27;6.87;;;1.20;;
4355;SDS011;2191;51.482;7.408;2022-07-06T09:36:07;1.77;;;0.97;;
4355;SDS011;2191;51.482;7.408;2022-07-06T09:38:37;1.33;;;0.90;;
4355;SDS011;2191;51.482;7.408;2022-07-06T09:41:12;5.77;;;0.90;;
4355;SDS011;2191;51.482;7.408;2022-07-06T09:43:42;3.10;;;1.10;;
4355;SDS011;2191;51.482;7.408;2022-07-06T09:46:10;3.17;;;1.03;;
4355;SDS011;2191;51.482;7.408;2022-07-06T09:48:42;5.73;;;1.10;;
4355;SDS011;2191;51.482;7.408;2022-07-06T09:51:10;4.63;;;1.33;;
4355;SDS011;2191;51.482;7.408;2022-07-06T09:53:41;1.37;;;1.10;;
4355;SDS011;2191;51.482;7.408;2022-07-06T09:56:14;4.40;;;1.13;;
4355;SDS011;2191;51.482;7.408;2022-07-06T09:58:45;2.57;;;1.20;;
4355;SDS011;2191;51.482;7.408;2022-07-06T10:01:28;1.43;;;0.90;;
4355;SDS011;2191;51.482;7.408;2022-07-06T10:03:57;3.13;;;0.80;;
4355;SDS011;2191;51.482;7.408;2022-07-06T10:06:39;2.70;;;0.73;;
4355;SDS011;2191;51.482;7.408;2022-07-06T10:09:09;7.40;;;0.90;;
4355;SDS011;2191;51.482;7.408;2022-07-06T10:11:39;1.57;;;1.00;;
4355;SDS011;2191;51.482;7.408;2022-07-06T10:14:08;4.63;;;1.10;;
4355;SDS011;2191;51.482;7.408;2022-07-06T10:16:38;4.10;;;1.50;;
4355;SDS011;2191;51.482;7.408;2022-07-06T10:19:09;4.00;;;1.40;;
4355;SDS011;2191;51.482;7.408;2022-07-06T10:21:37;3.90;;;1.63;;
4355;SDS011;2191;51.482;7.408;2022-07-06T10:24:20;1.60;;;1.30;;
4355;SDS011;2191;51.482;7.408;2022-07-06T10:26:59;2.77;;;0.90;;
4355;SDS011;2191;51.482;7.408;2022-07-06T10:29:27;2.60;;;0.90;;
4355;SDS011;2191;51.482;7.408;2022-07-06T10:32:00;2.97;;;1.03;;
4355;SDS011;2191;51.482;7.408;2022-07-06T10:34:31;2.13;;;0.80;;
4355;SDS011;2191;51.482;7.408;2022-07-06T10:37:05;7.87;;;1.33;;
4355;SDS011;2191;51.482;7.408;2022-07-06T10:39:35;1.70;;;1.27;;
4355;SDS011;2191;51.482;7.408;2022-07-06T10:42:43;5.77;;;1.50;;
4355;SDS011;2191;51.482;7.408;2022-07-06T10:45:19;6.20;;;1.20;;
4355;SDS011;2191;51.482;7.408;2022-07-06T10:47:54;3.37;;;1.10;;
4355;SDS011;2191;51.482;7.408;2022-07-06T10:50:47;4.73;;;0.97;;
4355;SDS011;2191;51.482;7.408;2022-07-06T10:53:17;4.50;;;1.17;;
4355;SDS011;2191;51.482;7.408;2022-07-06T10:55:59;4.00;;;1.10;;
4355;SDS011;2191;51.482;7.408;2022-07-06T11:01:19;4.43;;;1.53;;
4355;SDS011;2191;51.482;7.408;2022-07-06T11:03:50;3.50;;;1.10;;
4355;SDS011;2191;51.482;7.408;2022-07-06T11:06:33;2.60;;;1.33;;
4355;SDS011;2191;51.482;7.408;2022-07-06T11:09:05;1.63;;;0.90;;
4355;SDS011;2191;51.482;7.408;2022-07-06T11:11:41;1.33;;;0.80;;
4355;SDS011;2191;51.482;7.408;2022-07-06T11:14:15;5.30;;;1.60;;
4355;SDS011;2191;51.482;7.408;2022-07-06T11:17:00;6.87;;;1.83;;
4355;SDS011;2191;51.482;7.408;2022-07-06T11:19:29;4.13;;;1.40;;
4355;SDS011;2191;51.482;7.408;2022-07-06T11:22:04;3.10;;;1.30;;
4355;SDS011;2191;51.482;7.408;2022-07-06T11:24:34;3.47;;;1.50;;
4355;SDS011;2191;51.482;7.408;2022-07-06T11:27:05;1.77;;;0.80;;
4355;SDS011;2191;51.482;7.408;2022-07-06T11:29:36;3.40;;;1.07;;
4355;SDS011;2191;51.482;7.408;2022-07-06T11:32:09;4.60;;;1.50;;
4355;SDS011;2191;51.482;7.408;2022-07-06T11:34:39;4.00;;;1.10;;
4355;SDS011;2191;51.482;7.408;2022-07-06T11:37:08;5.10;;;1.13;;
4355;SDS011;2191;51.482;7.408;2022-07-06T11:39:45;1.30;;;0.97;;
4355;SDS011;2191;51.482;7.408;2022-07-06T11:42:16;2.40;;;1.00;;
4355;SDS011;2191;51.482;7.408;2022-07-06T11:44:45;2.60;;;1.00;;
4355;SDS011;2191;51.482;7.408;2022-07-06T11:47:16;2.50;;;1.20;;
4355;SDS011;2191;51.482;7.408;2022-07-06T11:49:59;3.37;;;0.97;;
4355;SDS011;2191;51.482;7.408;2022-07-06T11:52:26;4.83;;;1.00;;
4355;SDS011;2191;51.482;7.408;2022-07-06T11:54:57;1.70;;;1.00;;
4355;SDS011;2191;51.482;7.408;2022-07-06T11:57:30;2.70;;;1.03;;
4355;SDS011;2191;51.482;7.408;2022-07-06T12:00:02;3.13;;;1.20;;
4355;SDS011;2191;51.482;7.408;2022-07-06T12:02:31;2.70;;;0.97;;
4355;SDS011;2191;51.482;7.408;2022-07-06T12:05:04;3.77;;;1.40;;
4355;SDS011;2191;51.482;7.408;2022-07-06T12:07:33;2.93;;;1.30;;
4355;SDS011;2191;51.482;7.408;2022-07-06T12:10:04;5.43;;;2.13;;
4355;SDS011;2191;51.482;7.408;2022-07-06T12:12:35;2.97;;;1.00;;
4355;SDS011;2191;51.482;7.408;2022-07-06T12:15:03;4.63;;;2.87;;
4355;SDS011;2191;51.482;7.408;2022-07-06T12:17:32;1.97;;;0.70;;
4355;SDS011;2191;51.482;7.408;2022-07-06T12:20:01;2.80;;;1.20;;
4355;SDS011;2191;51.482;7.408;2022-07-06T12:22:32;8.03;;;1.50;;
4355;SDS011;2191;51.482;7.408;2022-07-06T12:25:00;1.87;;;1.00;;
4355;SDS011;2191;51.482;7.408;2022-07-06T12:27:33;3.80;;;1.30;;
4355;SDS011;2191;51.482;7.408;2022-07-06T12:30:11;5.37;;;1.03;;
4355;SDS011;2191;51.482;7.408;2022-07-06T12:35:40;5.20;;;1.33;;
4355;SDS011;2191;51.482;7.408;2022-07-06T12:38:21;4.20;;;1.20;;
4355;SDS011;2191;51.482;7.408;2022-07-06T12:40:52;2.43;;;1.00;;
4355;SDS011;2191;51.482;7.408;2022-07-06T12:43:38;3.00;;;0.97;;
4355;SDS011;2191;51.482;7.408;2022-07-06T12:48:57;2.60;;;1.50;;
4355;SDS011;2191;51.482;7.408;2022-07-06T12:54:28;8.33;;;1.07;;
4355;SDS011;2191;51.482;7.408;2022-07-06T12:57:13;1.23;;;1.00;;
4355;SDS011;2191;51.482;7.408;2022-07-06T12:59:46;2.10;;;1.23;;
4355;SDS011;2191;51.482;7.408;2022-07-06T13:02:19;2.07;;;1.37;;
4355;SDS011;2191;51.482;7.408;2022-07-06T13:05:10;2.00;;;1.00;;
4355;SDS011;2191;51.482;7.408;2022-07-06T13:07:44;2.00;;;0.90;;
4355;SDS011;2191;51.482;7.408;2022-07-06T13:10:13;4.23;;;1.40;;
4355;SDS011;2191;51.482;7.408;2022-07-06T13:12:44;3.67;;;1.20;;
4355;SDS011;2191;51.482;7.408;2022-07-06T13:15:17;1.67;;;0.90;;
4355;SDS011;2191;51.482;7.408;2022-07-06T13:17:45;3.40;;;1.33;;
4355;SDS011;2191;51.482;7.408;2022-07-06T13:20:13;1.97;;;1.10;;
4355;SDS011;2191;51.482;7.408;2022-07-06T13:22:43;2.07;;;1.07;;
4355;SDS011;2191;51.482;7.408;2022-07-06T13:25:14;7.00;;;1.40;;
4355;SDS011;2191;51.482;7.408;2022-07-06T13:27:45;4.60;;;1.30;;
4355;SDS011;2191;51.482;7.408;2022-07-06T13:30:17;1.40;;;0.90;;
4355;SDS011;2191;51.482;7.408;2022-07-06T13:32:45;1.63;;;1.27;;
4355;SDS011;2191;51.482;7.408;2022-07-06T13:35:13;3.93;;;1.20;;
4355;SDS011;2191;51.482;7.408;2022-07-06T13:37:44;2.87;;;1.00;;
4355;SDS011;2191;51.482;7.408;2022-07-06T13:40:16;1.60;;;1.07;;
4355;SDS011;2191;51.482;7.408;2022-07-06T13:42:47;2.10;;;1.00;;
4355;SDS011;2191;51.482;7.408;2022-07-06T13:45:21;3.27;;;1.10;;
4355;SDS011;2191;51.482;7.408;2022-07-06T13:47:52;7.70;;;1.00;;
4355;SDS011;2191;51.482;7.408;2022-07-06T13:50:20;2.10;;;0.97;;
4355;SDS011;2191;51.482;7.408;2022-07-06T13:52:51;3.23;;;1.33;;
4355;SDS011;2191;51.482;7.408;2022-07-06T13:55:19;6.67;;;1.30;;
4355;SDS011;2191;51.482;7.408;2022-07-06T13:57:51;3.37;;;0.90;;
4355;SDS011;2191;51.482;7.408;2022-07-06T14:00:19;2.30;;;0.90;;
4355;SDS011;2191;51.482;7.408;2022-07-06T14:02:51;2.50;;;1.03;;
4355;SDS011;2191;51.482;7.408;2022-07-06T14:05:21;4.40;;;1.03;;
4355;SDS011;2191;51.482;7.408;2022-07-06T14:07:49;1.70;;;1.00;;
4355;SDS011;2191;51.482;7.408;2022-07-06T14:10:21;2.37;;;1.03;;
4355;SDS011;2191;51.482;7.408;2022-07-06T14:12:49;3.17;;;1.20;;
4355;SDS011;2191;51.482;7.408;2022-07-06T14:15:24;2.80;;;1.00;;
4355;SDS011;2191;51.482;7.408;2022-07-06T14:17:55;1.63;;;1.20;;
4355;SDS011;2191;51.482;7.408;2022-07-06T14:20:23;7.20;;;1.13;;
4355;SDS011;2191;51.482;7.408;2022-07-06T14:22:54;7.83;;;1.60;;
4355;SDS011;2191;51.482;7.408;2022-07-06T14:25:22;6.70;;;1.53;;
4355;SDS011;2191;51.482;7.408;2022-07-06T14:27:50;1.47;;;1.17;;
4355;SDS011;2191;51.482;7.408;2022-07-06T14:30:18;2.17;;;1.10;;
4355;SDS011;2191;51.482;7.408;2022-07-06T14:32:49;4.03;;;1.27;;
4355;SDS011;2191;51.482;7.408;2022-07-06T14:35:22;2.17;;;1.50;;
4355;SDS011;2191;51.482;7.408;2022-07-06T14:37:51;2.80;;;1.30;;
4355;SDS011;2191;51.482;7.408;2022-07-06T14:40:21;3.80;;;1.57;;
4355;SDS011;2191;51.482;7.408;2022-07-06T14:42:49;4.13;;;1.70;;
4355;SDS011;2191;51.482;7.408;2022-07-06T14:45:17;3.87;;;1.27;;
4355;SDS011;2191;51.482;7.408;2022-07-06T14:47:49;3.43;;;1.73;;
4355;SDS011;2191;51.482;7.408;2022-07-06T14:50:17;3.60;;;2.30;;
4355;SDS011;2191;51.482;7.408;2022-07-06T14:52:48;2.30;;;1.30;;
4355;SDS011;2191;51.482;7.408;2022-07-06T14:55:20;1.90;;;1.10;;
4355;SDS011;2191;51.482;7.408;2022-07-06T14:57:48;3.30;;;1.53;;
4355;SDS011;2191;51.482;7.408;2022-07-06T15:00:26;1.47;;;0.90;;
4355;SDS011;2191;51.482;7.408;2022-07-06T15:02:55;3.47;;;1.43;;
4355;SDS011;2191;51.482;7.408;2022-07-06T15:05:26;2.83;;;1.23;;
4355;SDS011;2191;51.482;7.408;2022-07-06T15:07:54;2.50;;;1.30;;
4355;SDS011;2191;51.482;7.408;2022-07-06T15:10:22;2.03;;;1.40;;
4355;SDS011;2191;51.482;7.408;2022-07-06T15:12:52;3.43;;;1.30;;
4355;SDS011;2191;51.482;7.408;2022-07-06T15:15:31;2.80;;;1.73;;
4355;SDS011;2191;51.482;7.408;2022-07-06T15:18:26;1.40;;;1.30;;
4355;SDS011;2191;51.482;7.408;2022-07-06T15:20:54;5.73;;;1.30;;
4355;SDS011;2191;51.482;7.408;2022-07-06T15:23:22;2.90;;;1.10;;
4355;SDS011;2191;51.482;7.408;2022-07-06T15:25:50;2.03;;;1.23;;
4355;SDS011;2191;51.482;7.408;2022-07-06T15:28:21;4.50;;;1.43;;
4355;SDS011;2191;51.482;7.408;2022-07-06T15:30:50;4.20;;;1.40;;
4355;SDS011;2191;51.482;7.408;2022-07-06T15:33:28;5.53;;;1.10;;
4355;SDS011;2191;51.482;7.408;2022-07-06T15:35:56;5.77;;;1.50;;
4355;SDS011;2191;51.482;7.408;2022-07-06T15:38:24;2.53;;;1.20;;
4355;SDS011;2191;51.482;7.408;2022-07-06T15:40:52;2.20;;;1.10;;
4355;SDS011;2191;51.482;7.408;2022-07-06T15:43:28;4.23;;;1.37;;
4355;SDS011;2191;51.482;7.408;2022-07-06T15:45:58;4.00;;;1.30;;
4355;SDS011;2191;51.482;7.408;2022-07-06T15:48:29;3.13;;;1.10;;
4355;SDS011;2191;51.482;7.408;2022-07-06T15:51:00;2.30;;;1.33;;
4355;SDS011;2191;51.482;7.408;2022-07-06T15:53:28;3.40;;;1.37;;
4355;SDS011;2191;51.482;7.408;2022-07-06T15:55:57;1.30;;;0.90;;
4355;SDS011;2191;51.482;7.408;2022-07-06T15:58:26;3.60;;;1.40;;